createdAt,value
2023-02-13T00:00:41.489Z,0.00
2023-02-13T00:01:41.427Z,0.00
2023-02-13T00:02:41.437Z,0.00
2023-02-13T00:03:41.473Z,0.00
2023-02-13T00:04:41.378Z,0.00
2023-02-13T00:05:41.355Z,0.00
2023-02-13T00:06:41.372Z,0.00
2023-02-13T00:07:41.347Z,0.00
2023-02-13T00:08:41.297Z,0.00
2023-02-13T00:09:41.286Z,0.00
2023-02-13T00:10:41.267Z,0.00
2023-02-13T00:11:41.247Z,0.00
2023-02-13T00:12:41.226Z,0.00
2023-02-13T00:13:41.216Z,0.00
2023-02-13T00:14:41.194Z,0.00
2023-02-13T00:15:41.241Z,0.00
2023-02-13T00:16:41.165Z,0.00
2023-02-13T00:17:41.143Z,0.00
2023-02-13T00:18:41.129Z,0.00
2023-02-13T00:19:41.107Z,0.00
2023-02-13T00:20:41.124Z,0.00
2023-02-13T00:21:41.079Z,0.00
2023-02-13T00:22:41.085Z,0.00
2023-02-13T00:23:41.048Z,0.00
2023-02-13T00:24:41.019Z,0.00
2023-02-13T00:25:41.046Z,0.00
2023-02-13T00:26:40.982Z,0.00
2023-02-13T00:27:40.966Z,0.00
2023-02-13T00:28:41.062Z,0.00
2023-02-13T00:29:40.926Z,0.00
2023-02-13T00:30:40.992Z,0.00
2023-02-13T00:31:41.067Z,0.00
2023-02-13T00:32:40.872Z,0.00
2023-02-13T00:33:40.890Z,0.00
2023-02-13T00:34:40.839Z,0.00
2023-02-13T00:35:40.831Z,0.00
2023-02-13T00:36:40.805Z,0.00
2023-02-13T00:37:40.786Z,0.00
2023-02-13T00:38:40.769Z,0.00
2023-02-13T00:39:40.777Z,0.00
2023-02-13T00:40:40.775Z,0.00
2023-02-13T00:41:40.717Z,0.00
2023-02-13T00:42:40.704Z,0.00
2023-02-13T00:43:40.723Z,0.00
2023-02-13T00:44:40.690Z,0.00
2023-02-13T00:45:40.674Z,0.00
2023-02-13T00:46:40.653Z,0.00
2023-02-13T00:47:40.635Z,0.00
2023-02-13T00:48:40.587Z,0.00
2023-02-13T00:49:40.586Z,0.00
2023-02-13T00:50:40.549Z,0.00
2023-02-13T00:51:40.543Z,0.00
2023-02-13T00:52:40.524Z,0.00
2023-02-13T00:53:40.500Z,0.00
2023-02-13T00:54:40.484Z,0.00
2023-02-13T00:55:40.461Z,0.00
2023-02-13T00:56:40.484Z,0.00
2023-02-13T00:57:40.428Z,0.00
2023-02-13T00:58:40.431Z,0.00
2023-02-13T00:59:40.390Z,0.00
2023-02-13T01:00:40.374Z,0.00
2023-02-13T01:01:40.431Z,0.00
2023-02-13T01:02:40.388Z,0.00
2023-02-13T01:03:40.343Z,0.00
2023-02-13T01:04:40.308Z,0.00
2023-02-13T01:05:40.309Z,0.00
2023-02-13T01:06:40.275Z,0.00
2023-02-13T01:07:40.257Z,0.00
2023-02-13T01:08:40.247Z,0.00
2023-02-13T01:09:40.218Z,0.00
2023-02-13T01:10:40.214Z,0.00
2023-02-13T01:11:40.185Z,0.00
2023-02-13T01:12:40.205Z,0.00
2023-02-13T01:13:40.148Z,0.00
2023-02-13T01:14:40.147Z,0.00
2023-02-13T01:15:40.134Z,0.00
2023-02-13T01:16:40.132Z,0.00
2023-02-13T01:17:40.104Z,0.00
2023-02-13T01:18:40.062Z,0.00
2023-02-13T01:19:40.074Z,0.00
2023-02-13T01:20:40.076Z,0.00
2023-02-13T01:21:40.009Z,0.00
2023-02-13T01:22:39.997Z,0.00
2023-02-13T01:23:40.027Z,0.00
2023-02-13T01:24:39.959Z,0.00
2023-02-13T01:25:39.953Z,0.00
2023-02-13T01:26:39.950Z,0.00
2023-02-13T01:27:39.934Z,0.00
2023-02-13T01:28:40.049Z,0.00
2023-02-13T01:29:39.899Z,0.00
2023-02-13T01:30:39.914Z,0.00
2023-02-13T01:31:39.956Z,0.00
2023-02-13T01:32:39.818Z,0.00
2023-02-13T01:33:39.800Z,0.00
2023-02-13T01:34:39.781Z,0.00
2023-02-13T01:35:39.794Z,0.00
2023-02-13T01:36:39.760Z,0.00
2023-02-13T01:37:39.727Z,0.00
2023-02-13T01:38:39.713Z,0.00
2023-02-13T01:39:39.689Z,0.00
2023-02-13T01:40:39.700Z,0.00
2023-02-13T01:41:39.696Z,0.00
2023-02-13T01:42:39.635Z,0.00
2023-02-13T01:43:39.615Z,0.00
2023-02-13T01:44:39.598Z,0.00
2023-02-13T01:45:39.580Z,0.00
2023-02-13T01:46:39.702Z,0.00
2023-02-13T01:47:39.574Z,0.00
2023-02-13T01:48:39.529Z,0.00
2023-02-13T01:49:39.546Z,0.00
2023-02-13T01:50:39.498Z,0.00
2023-02-13T01:51:39.502Z,0.00
2023-02-13T01:52:39.459Z,0.00
2023-02-13T01:53:39.500Z,0.00
2023-02-13T01:54:39.431Z,0.00
2023-02-13T01:55:39.405Z,0.00
2023-02-13T01:56:39.396Z,0.00
2023-02-13T01:57:39.388Z,0.00
2023-02-13T01:58:39.361Z,0.00
2023-02-13T01:59:39.363Z,0.00
2023-02-13T02:00:39.340Z,0.00
2023-02-13T02:01:39.392Z,0.00
2023-02-13T02:02:39.333Z,0.00
2023-02-13T02:03:39.292Z,0.00
2023-02-13T02:04:39.256Z,0.00
2023-02-13T02:05:39.226Z,0.00
2023-02-13T02:06:39.254Z,0.00
2023-02-13T02:07:39.187Z,0.00
2023-02-13T02:08:39.180Z,0.00
2023-02-13T02:09:39.176Z,0.00
2023-02-13T02:10:39.140Z,0.00
2023-02-13T02:11:39.156Z,0.00
2023-02-13T02:12:39.104Z,0.00
2023-02-13T02:13:39.096Z,0.00
2023-02-13T02:14:39.097Z,0.00
2023-02-13T02:15:39.159Z,0.00
2023-02-13T02:16:39.068Z,0.00
2023-02-13T02:17:39.017Z,0.00
2023-02-13T02:18:39.004Z,0.00
2023-02-13T02:19:38.982Z,0.00
2023-02-13T02:20:38.979Z,0.00
2023-02-13T02:21:38.947Z,0.00
2023-02-13T02:22:38.965Z,0.00
2023-02-13T02:23:38.913Z,0.00
2023-02-13T02:24:38.933Z,0.00
2023-02-13T02:25:38.894Z,0.00
2023-02-13T02:26:38.869Z,0.00
2023-02-13T02:27:38.879Z,0.00
2023-02-13T02:28:38.858Z,0.00
2023-02-13T02:29:38.815Z,0.00
2023-02-13T02:30:38.822Z,0.00
2023-02-13T02:31:38.926Z,0.00
2023-02-13T02:32:38.752Z,0.00
2023-02-13T02:33:38.776Z,0.00
2023-02-13T02:34:38.718Z,0.00
2023-02-13T02:35:38.699Z,0.00
2023-02-13T02:36:38.695Z,0.00
2023-02-13T02:37:38.661Z,0.00
2023-02-13T02:38:38.650Z,0.00
2023-02-13T02:39:38.669Z,0.00
2023-02-13T02:40:38.615Z,0.00
2023-02-13T02:41:38.598Z,0.00
2023-02-13T02:42:38.577Z,0.00
2023-02-13T02:43:38.632Z,0.00
2023-02-13T02:44:38.566Z,0.00
2023-02-13T02:45:38.532Z,0.00
2023-02-13T02:46:38.572Z,0.00
2023-02-13T02:47:38.488Z,0.00
2023-02-13T02:48:38.508Z,0.00
2023-02-13T02:49:38.446Z,0.00
2023-02-13T02:50:38.449Z,0.00
2023-02-13T02:51:38.416Z,0.00
2023-02-13T02:52:38.392Z,0.00
2023-02-13T02:53:38.377Z,0.00
2023-02-13T02:54:38.360Z,0.00
2023-02-13T02:55:38.346Z,0.00
2023-02-13T02:56:38.333Z,0.00
2023-02-13T02:57:38.318Z,0.00
2023-02-13T02:58:38.299Z,0.00
2023-02-13T02:59:38.276Z,0.00
2023-02-13T03:00:38.341Z,0.00
2023-02-13T03:01:38.234Z,0.00
2023-02-13T03:02:38.222Z,0.00
2023-02-13T03:03:38.202Z,0.00
2023-02-13T03:04:38.182Z,0.00
2023-02-13T03:05:38.170Z,0.00
2023-02-13T03:06:38.182Z,0.00
2023-02-13T03:07:38.122Z,0.00
2023-02-13T03:08:38.113Z,0.00
2023-02-13T03:09:38.104Z,0.00
2023-02-13T03:10:38.073Z,0.00
2023-02-13T03:11:38.111Z,0.00
2023-02-13T03:12:38.081Z,0.00
2023-02-13T03:13:38.015Z,0.00
2023-02-13T03:14:38.006Z,0.00
2023-02-13T03:15:37.980Z,0.00
2023-02-13T03:16:38.031Z,0.00
2023-02-13T03:17:37.966Z,0.00
2023-02-13T03:18:37.978Z,0.00
2023-02-13T03:19:37.911Z,0.00
2023-02-13T03:20:37.894Z,0.00
2023-02-13T03:21:37.877Z,0.00
2023-02-13T03:22:37.903Z,0.00
2023-02-13T03:23:37.840Z,0.00
2023-02-13T03:24:37.827Z,0.00
2023-02-13T03:25:37.803Z,0.00
2023-02-13T03:26:37.791Z,0.00
2023-02-13T03:27:37.768Z,0.00
2023-02-13T03:28:37.849Z,0.00
2023-02-13T03:29:37.736Z,0.00
2023-02-13T03:30:37.755Z,0.00
2023-02-13T03:31:37.740Z,0.00
2023-02-13T03:32:37.682Z,0.00
2023-02-13T03:33:37.693Z,0.00
2023-02-13T03:34:37.697Z,0.00
2023-02-13T03:35:37.636Z,0.00
2023-02-13T03:36:37.609Z,0.00
2023-02-13T03:37:37.611Z,0.00
2023-02-13T03:38:37.597Z,0.00
2023-02-13T03:39:37.565Z,0.00
2023-02-13T03:40:37.567Z,0.00
2023-02-13T03:41:37.532Z,0.00
2023-02-13T03:42:37.518Z,0.00
2023-02-13T03:43:37.485Z,0.00
2023-02-13T03:44:37.497Z,0.00
2023-02-13T03:45:37.514Z,0.00
2023-02-13T03:46:37.434Z,0.00
2023-02-13T03:47:37.417Z,0.00
2023-02-13T03:48:37.399Z,0.00
2023-02-13T03:49:37.409Z,0.00
2023-02-13T03:50:37.361Z,0.00
2023-02-13T03:51:37.366Z,0.00
2023-02-13T03:52:37.324Z,0.00
2023-02-13T03:53:37.351Z,0.00
2023-02-13T03:54:37.296Z,0.00
2023-02-13T03:55:37.277Z,0.00
2023-02-13T03:56:37.295Z,0.00
2023-02-13T03:57:37.240Z,0.00
2023-02-13T03:58:37.217Z,0.00
2023-02-13T03:59:37.204Z,0.00
2023-02-13T04:00:37.193Z,0.00
2023-02-13T04:01:37.279Z,0.00
2023-02-13T04:02:37.160Z,0.00
2023-02-13T04:03:37.136Z,0.00
2023-02-13T04:04:37.115Z,0.00
2023-02-13T04:05:37.125Z,0.00
2023-02-13T04:06:37.078Z,0.00
2023-02-13T04:07:37.069Z,0.00
2023-02-13T04:08:37.040Z,0.00
2023-02-13T04:09:37.050Z,0.00
2023-02-13T04:10:37.013Z,0.00
2023-02-13T04:11:37.001Z,0.00
2023-02-13T04:12:36.996Z,0.00
2023-02-13T04:13:36.953Z,0.00
2023-02-13T04:14:36.987Z,0.00
2023-02-13T04:15:36.920Z,0.00
2023-02-13T04:16:36.959Z,0.00
2023-02-13T04:17:36.886Z,0.00
2023-02-13T04:18:36.866Z,0.00
2023-02-13T04:19:36.845Z,0.00
2023-02-13T04:20:36.829Z,0.00
2023-02-13T04:21:36.848Z,0.00
2023-02-13T04:22:36.790Z,0.00
2023-02-13T04:23:37.134Z,0.00
2023-02-13T04:24:36.783Z,0.00
2023-02-13T04:25:36.744Z,0.00
2023-02-13T04:26:36.737Z,0.00
2023-02-13T04:27:36.703Z,0.00
2023-02-13T04:28:36.746Z,0.00
2023-02-13T04:29:36.703Z,0.00
2023-02-13T04:30:36.788Z,0.00
2023-02-13T04:31:36.753Z,0.00
2023-02-13T04:32:36.612Z,0.00
2023-02-13T04:33:36.615Z,0.00
2023-02-13T04:34:36.588Z,0.00
2023-02-13T04:35:36.607Z,0.00
2023-02-13T04:36:36.553Z,0.00
2023-02-13T04:37:36.533Z,0.00
2023-02-13T04:38:36.537Z,0.00
2023-02-13T04:39:36.496Z,0.00
2023-02-13T04:40:36.483Z,0.00
2023-02-13T04:41:36.470Z,0.00
2023-02-13T04:42:36.442Z,0.00
2023-02-13T04:43:36.468Z,0.00
2023-02-13T04:44:36.403Z,0.00
2023-02-13T04:45:36.383Z,0.00
2023-02-13T04:46:36.369Z,0.00
2023-02-13T04:47:36.346Z,0.00
2023-02-13T04:48:38.710Z,0.00
2023-02-13T04:49:36.345Z,0.00
2023-02-13T04:50:36.294Z,0.00
2023-02-13T04:51:36.280Z,0.00
2023-02-13T04:52:36.263Z,0.00
2023-02-13T04:53:36.267Z,0.00
2023-02-13T04:54:36.247Z,0.00
2023-02-13T04:55:36.218Z,0.00
2023-02-13T04:56:36.192Z,0.00
2023-02-13T04:57:36.230Z,0.00
2023-02-13T04:58:36.199Z,0.00
2023-02-13T04:59:36.140Z,0.00
2023-02-13T05:00:36.131Z,0.00
2023-02-13T05:01:36.214Z,0.00
2023-02-13T05:02:37.344Z,0.00
2023-02-13T05:03:36.066Z,0.00
2023-02-13T05:04:36.075Z,0.00
2023-02-13T05:05:36.072Z,0.00
2023-02-13T05:06:36.029Z,0.00
2023-02-13T05:07:35.993Z,0.00
2023-02-13T05:08:36.015Z,0.00
2023-02-13T05:09:35.981Z,0.00
2023-02-13T05:10:35.937Z,0.00
2023-02-13T05:11:35.922Z,0.00
2023-02-13T05:12:35.901Z,0.00
2023-02-13T05:13:35.909Z,0.00
2023-02-13T05:14:35.869Z,0.00
2023-02-13T05:15:35.900Z,0.00
2023-02-13T05:16:35.842Z,0.00
2023-02-13T05:17:35.812Z,0.00
2023-02-13T05:18:35.826Z,0.00
2023-02-13T05:19:35.779Z,0.00
2023-02-13T05:20:35.759Z,0.00
2023-02-13T05:21:35.749Z,0.00
2023-02-13T05:22:35.731Z,0.00
2023-02-13T05:23:35.744Z,0.00
2023-02-13T05:24:35.689Z,0.00
2023-02-13T05:25:35.673Z,0.00
2023-02-13T05:26:35.658Z,0.00
2023-02-13T05:27:35.644Z,0.00
2023-02-13T05:28:35.695Z,0.00
2023-02-13T05:29:35.627Z,0.00
2023-02-13T05:30:35.596Z,0.00
2023-02-13T05:31:35.720Z,0.00
2023-02-13T05:32:35.551Z,0.00
2023-02-13T05:33:35.530Z,0.00
2023-02-13T05:34:35.539Z,0.00
2023-02-13T05:35:35.490Z,0.00
2023-02-13T05:36:35.480Z,0.00
2023-02-13T05:37:35.455Z,0.00
2023-02-13T05:38:35.453Z,0.00
2023-02-13T05:39:35.447Z,0.00
2023-02-13T05:40:35.414Z,0.00
2023-02-13T05:41:35.388Z,0.00
2023-02-13T05:42:35.380Z,0.00
2023-02-13T05:43:35.366Z,0.00
2023-02-13T05:44:35.366Z,0.00
2023-02-13T05:45:35.316Z,0.00
2023-02-13T05:46:35.348Z,0.00
2023-02-13T05:47:35.282Z,0.00
2023-02-13T05:48:35.266Z,0.00
2023-02-13T05:49:35.251Z,0.00
2023-02-13T05:50:35.229Z,0.00
2023-02-13T05:51:35.208Z,0.00
2023-02-13T05:52:35.197Z,0.00
2023-02-13T05:53:35.282Z,0.00
2023-02-13T05:54:35.160Z,0.00
2023-02-13T05:55:35.144Z,0.00
2023-02-13T05:56:35.125Z,0.00
2023-02-13T05:57:35.132Z,0.00
2023-02-13T05:58:35.085Z,0.00
2023-02-13T05:59:35.063Z,0.00
2023-02-13T06:00:35.102Z,0.00
2023-02-13T06:01:35.025Z,0.00
2023-02-13T06:02:35.047Z,0.00
2023-02-13T06:03:35.056Z,0.00
2023-02-13T06:04:34.989Z,0.00
2023-02-13T06:05:34.964Z,0.00
2023-02-13T06:06:34.989Z,0.00
2023-02-13T06:07:34.925Z,0.00
2023-02-13T06:08:34.945Z,0.00
2023-02-13T06:09:34.885Z,0.00
2023-02-13T06:10:34.871Z,0.00
2023-02-13T06:11:34.849Z,0.00
2023-02-13T06:12:34.849Z,0.00
2023-02-13T06:13:34.834Z,0.00
2023-02-13T06:14:34.825Z,0.00
2023-02-13T06:15:34.791Z,0.00
2023-02-13T06:16:34.755Z,0.00
2023-02-13T06:17:34.756Z,0.00
2023-02-13T06:18:34.752Z,0.00
2023-02-13T06:19:34.699Z,0.00
2023-02-13T06:20:34.712Z,0.00
2023-02-13T06:21:34.666Z,0.00
2023-02-13T06:22:34.712Z,0.00
2023-02-13T06:23:34.704Z,0.00
2023-02-13T06:24:34.636Z,0.00
2023-02-13T06:25:34.599Z,0.00
2023-02-13T06:26:34.588Z,0.00
2023-02-13T06:27:34.559Z,0.00
2023-02-13T06:28:34.569Z,0.00
2023-02-13T06:29:34.554Z,0.00
2023-02-13T06:30:34.579Z,0.00
2023-02-13T06:31:34.548Z,0.00
2023-02-13T06:32:34.480Z,0.00
2023-02-13T06:33:34.462Z,0.00
2023-02-13T06:34:34.448Z,0.00
2023-02-13T06:35:34.443Z,0.00
2023-02-13T06:36:34.405Z,0.00
2023-02-13T06:37:34.384Z,0.00
2023-02-13T06:38:34.371Z,0.00
2023-02-13T06:39:34.352Z,0.00
2023-02-13T06:40:34.331Z,0.00
2023-02-13T06:41:34.357Z,0.00
2023-02-13T06:42:34.292Z,0.00
2023-02-13T06:43:34.279Z,0.00
2023-02-13T06:44:34.256Z,0.00
2023-02-13T06:45:34.248Z,0.00
2023-02-13T06:46:34.282Z,0.00
2023-02-13T06:47:34.255Z,0.00
2023-02-13T06:48:34.184Z,0.00
2023-02-13T06:49:34.195Z,0.00
2023-02-13T06:50:34.147Z,0.00
2023-02-13T06:51:34.142Z,0.00
2023-02-13T06:52:34.113Z,0.00
2023-02-13T06:53:34.104Z,0.00
2023-02-13T06:54:46.727Z,0.00
2023-02-13T06:55:34.061Z,0.00
2023-02-13T06:56:34.042Z,0.00
2023-02-13T06:57:34.108Z,0.00
2023-02-13T06:58:34.019Z,0.00
2023-02-13T06:59:33.987Z,0.00
2023-02-13T07:00:34.070Z,0.00
2023-02-13T07:01:33.950Z,0.00
2023-02-13T07:02:33.972Z,5.63
2023-02-13T07:03:33.922Z,5.63
2023-02-13T07:04:33.905Z,5.63
2023-02-13T07:05:33.918Z,5.63
2023-02-13T07:06:34.439Z,5.63
2023-02-13T07:07:33.849Z,5.63
2023-02-13T07:08:33.827Z,5.63
2023-02-13T07:09:33.826Z,5.63
2023-02-13T07:10:33.793Z,5.63
2023-02-13T07:11:33.768Z,5.63
2023-02-13T07:12:33.796Z,5.63
2023-02-13T07:13:33.734Z,5.63
2023-02-13T07:14:33.725Z,5.63
2023-02-13T07:15:33.697Z,5.63
2023-02-13T07:16:33.768Z,5.63
2023-02-13T07:17:33.664Z,11.25
2023-02-13T07:18:33.646Z,11.25
2023-02-13T07:19:33.628Z,11.25
2023-02-13T07:20:33.621Z,11.25
2023-02-13T07:21:33.595Z,11.25
2023-02-13T07:22:33.619Z,11.25
2023-02-13T07:23:33.552Z,11.25
2023-02-13T07:24:33.553Z,11.25
2023-02-13T07:25:33.535Z,11.25
2023-02-13T07:26:33.502Z,11.25
2023-02-13T07:27:33.579Z,11.25
2023-02-13T07:28:33.519Z,11.25
2023-02-13T07:29:33.467Z,16.88
2023-02-13T07:30:33.500Z,16.88
2023-02-13T07:31:33.431Z,16.88
2023-02-13T07:32:33.411Z,16.88
2023-02-13T07:33:33.376Z,16.88
2023-02-13T07:34:33.368Z,16.88
2023-02-13T07:35:33.376Z,16.88
2023-02-13T07:36:33.328Z,16.88
2023-02-13T07:37:33.313Z,16.88
2023-02-13T07:38:33.321Z,16.88
2023-02-13T07:39:33.304Z,16.88
2023-02-13T07:40:33.261Z,16.88
2023-02-13T07:41:33.237Z,16.88
2023-02-13T07:42:33.226Z,22.50
2023-02-13T07:43:33.205Z,22.50
2023-02-13T07:44:33.214Z,22.50
2023-02-13T07:45:33.177Z,22.50
2023-02-13T07:46:33.191Z,22.50
2023-02-13T07:47:33.135Z,22.50
2023-02-13T07:48:33.147Z,22.50
2023-02-13T07:49:33.100Z,22.50
2023-02-13T07:50:33.164Z,22.50
2023-02-13T07:51:33.083Z,22.50
2023-02-13T07:52:33.049Z,22.50
2023-02-13T07:53:33.062Z,22.50
2023-02-13T07:54:33.056Z,28.13
2023-02-13T07:55:33.016Z,28.13
2023-02-13T07:56:32.975Z,28.13
2023-02-13T07:57:32.961Z,28.13
2023-02-13T07:58:32.940Z,28.13
2023-02-13T07:59:32.923Z,28.13
2023-02-13T08:00:32.912Z,28.13
2023-02-13T08:01:32.935Z,28.13
2023-02-13T08:02:32.869Z,33.75
2023-02-13T08:03:32.893Z,33.75
2023-02-13T08:04:32.851Z,33.75
2023-02-13T08:05:32.827Z,33.75
2023-02-13T08:06:32.799Z,33.75
2023-02-13T08:07:32.784Z,33.75
2023-02-13T08:08:32.765Z,33.75
2023-02-13T08:09:32.799Z,33.75
2023-02-13T08:10:32.730Z,33.75
2023-02-13T08:11:32.715Z,39.38
2023-02-13T08:12:32.693Z,39.38
2023-02-13T08:13:32.670Z,39.38
2023-02-13T08:14:32.739Z,39.38
2023-02-13T08:15:32.639Z,39.38
2023-02-13T08:16:32.675Z,39.38
2023-02-13T08:17:32.621Z,39.38
2023-02-13T08:18:32.592Z,39.38
2023-02-13T08:19:32.564Z,45.00
2023-02-13T08:20:32.560Z,45.00
2023-02-13T08:21:32.528Z,45.00
2023-02-13T08:22:32.536Z,50.63
2023-02-13T08:23:32.628Z,50.63
2023-02-13T08:24:32.482Z,50.63
2023-02-13T08:25:32.462Z,50.63
2023-02-13T08:26:32.461Z,50.63
2023-02-13T08:27:32.476Z,50.63
2023-02-13T08:28:32.459Z,50.63
2023-02-13T08:29:32.392Z,50.63
2023-02-13T08:30:32.375Z,50.63
2023-02-13T08:31:32.516Z,50.63
2023-02-13T08:32:41.999Z,50.63
2023-02-13T08:33:32.351Z,50.63
2023-02-13T08:34:32.302Z,50.63
2023-02-13T08:35:32.286Z,50.63
2023-02-13T08:36:32.275Z,50.63
2023-02-13T08:37:32.275Z,50.63
2023-02-13T08:38:32.229Z,56.25
2023-02-13T08:39:32.216Z,56.25
2023-02-13T08:40:32.230Z,56.25
2023-02-13T08:41:32.183Z,56.25
2023-02-13T08:42:32.210Z,56.25
2023-02-13T08:43:32.145Z,56.25
2023-02-13T08:44:32.133Z,56.25
2023-02-13T08:45:32.127Z,56.25
2023-02-13T08:46:32.174Z,56.25
2023-02-13T08:47:32.274Z,61.88
2023-02-13T08:48:32.067Z,61.88
2023-02-13T08:49:32.043Z,56.25
2023-02-13T08:50:32.047Z,56.25
2023-02-13T08:51:32.032Z,61.88
2023-02-13T08:52:31.992Z,61.88
2023-02-13T08:53:31.998Z,61.88
2023-02-13T08:54:31.955Z,61.88
2023-02-13T08:55:31.963Z,61.88
2023-02-13T08:56:31.965Z,61.88
2023-02-13T08:57:31.901Z,61.88
2023-02-13T08:58:31.915Z,61.88
2023-02-13T08:59:31.868Z,61.88
2023-02-13T09:00:31.868Z,61.88
2023-02-13T09:01:31.935Z,67.50
2023-02-13T09:02:31.895Z,67.50
2023-02-13T09:03:31.800Z,67.50
2023-02-13T09:04:31.832Z,67.50
2023-02-13T09:05:31.825Z,67.50
2023-02-13T09:06:31.766Z,73.13
2023-02-13T09:07:31.732Z,73.13
2023-02-13T09:08:31.777Z,73.13
2023-02-13T09:09:31.704Z,73.13
2023-02-13T09:10:31.682Z,73.13
2023-02-13T09:11:31.661Z,73.13
2023-02-13T09:12:31.653Z,73.13
2023-02-13T09:13:31.629Z,73.13
2023-02-13T09:14:31.609Z,73.13
2023-02-13T09:15:31.599Z,73.13
2023-02-13T09:16:31.643Z,73.13
2023-02-13T09:17:31.562Z,73.13
2023-02-13T09:18:31.596Z,73.13
2023-02-13T09:19:31.532Z,78.75
2023-02-13T09:20:31.519Z,78.75
2023-02-13T09:21:31.517Z,78.75
2023-02-13T09:22:31.483Z,78.75
2023-02-13T09:23:31.464Z,78.75
2023-02-13T09:24:31.453Z,78.75
2023-02-13T09:25:31.431Z,78.75
2023-02-13T09:26:31.411Z,78.75
2023-02-13T09:27:31.443Z,78.75
2023-02-13T09:28:31.436Z,78.75
2023-02-13T09:29:31.415Z,78.75
2023-02-13T09:30:31.370Z,78.75
2023-02-13T09:31:31.431Z,78.75
2023-02-13T09:32:31.324Z,78.75
2023-02-13T09:33:31.306Z,78.75
2023-02-13T09:34:31.276Z,78.75
2023-02-13T09:35:31.294Z,84.38
2023-02-13T09:36:31.258Z,84.38
2023-02-13T09:37:31.231Z,90.00
2023-02-13T09:38:31.207Z,90.00
2023-02-13T09:39:31.225Z,90.00
2023-02-13T09:40:31.177Z,95.63
2023-02-13T09:41:31.193Z,101.25
2023-02-13T09:42:31.152Z,101.25
2023-02-13T09:43:31.126Z,106.88
2023-02-13T09:44:31.141Z,106.88
2023-02-13T09:45:31.094Z,106.88
2023-02-13T09:46:31.168Z,106.88
2023-02-13T09:47:31.080Z,106.88
2023-02-13T09:48:31.051Z,106.88
2023-02-13T09:49:31.051Z,106.88
2023-02-13T09:50:31.040Z,112.50
2023-02-13T09:51:30.995Z,106.88
2023-02-13T09:52:30.993Z,101.25
2023-02-13T09:53:30.962Z,101.25
2023-02-13T09:54:30.944Z,101.25
2023-02-13T09:55:30.932Z,101.25
2023-02-13T09:56:30.906Z,101.25
2023-02-13T09:57:30.891Z,101.25
2023-02-13T09:58:30.883Z,101.25
2023-02-13T09:59:30.865Z,101.25
2023-02-13T10:00:30.842Z,101.25
2023-02-13T10:01:30.877Z,106.88
2023-02-13T10:02:30.844Z,106.88
2023-02-13T10:03:30.821Z,112.50
2023-02-13T10:04:30.781Z,112.50
2023-02-13T10:05:30.759Z,112.50
2023-02-13T10:06:30.745Z,112.50
2023-02-13T10:07:30.724Z,118.13
2023-02-13T10:08:30.750Z,118.13
2023-02-13T10:09:30.697Z,118.13
2023-02-13T10:10:30.671Z,123.75
2023-02-13T10:11:30.662Z,123.75
2023-02-13T10:12:30.654Z,123.75
2023-02-13T10:13:30.629Z,129.38
2023-02-13T10:14:32.593Z,129.38
2023-02-13T10:15:30.670Z,129.38
2023-02-13T10:16:30.594Z,129.38
2023-02-13T10:17:30.650Z,129.38
2023-02-13T10:18:30.547Z,123.75
2023-02-13T10:19:30.631Z,118.13
2023-02-13T10:20:30.510Z,118.13
2023-02-13T10:21:30.539Z,123.75
2023-02-13T10:22:30.479Z,135.00
2023-02-13T10:23:30.480Z,140.63
2023-02-13T10:24:30.479Z,146.25
2023-02-13T10:25:30.445Z,146.25
2023-02-13T10:26:30.415Z,146.25
2023-02-13T10:27:30.921Z,146.25
2023-02-13T10:28:30.396Z,146.25
2023-02-13T10:29:30.370Z,146.25
2023-02-13T10:30:30.364Z,140.63
2023-02-13T10:31:30.452Z,135.00
2023-02-13T10:32:30.370Z,129.38
2023-02-13T10:33:30.343Z,123.75
2023-02-13T10:34:30.313Z,118.13
2023-02-13T10:35:30.275Z,112.50
2023-02-13T10:36:30.257Z,106.88
2023-02-13T10:37:30.308Z,101.25
2023-02-13T10:38:30.221Z,101.25
2023-02-13T10:39:30.214Z,101.25
2023-02-13T10:40:30.209Z,101.25
2023-02-13T10:41:30.179Z,101.25
2023-02-13T10:42:30.164Z,101.25
2023-02-13T10:43:30.173Z,106.88
2023-02-13T10:44:30.127Z,101.25
2023-02-13T10:45:30.111Z,101.25
2023-02-13T10:46:30.094Z,101.25
2023-02-13T10:47:30.091Z,101.25
2023-02-13T10:48:30.081Z,101.25
2023-02-13T10:49:30.058Z,101.25
2023-02-13T10:50:30.034Z,101.25
2023-02-13T10:51:30.019Z,101.25
2023-02-13T10:52:29.998Z,101.25
2023-02-13T10:53:29.992Z,95.63
2023-02-13T10:54:29.970Z,95.63
2023-02-13T10:55:29.997Z,90.00
2023-02-13T10:56:29.956Z,95.63
2023-02-13T10:57:29.926Z,95.63
2023-02-13T10:58:29.900Z,95.63
2023-02-13T10:59:29.924Z,95.63
2023-02-13T11:00:29.873Z,95.63
2023-02-13T11:01:29.917Z,95.63
2023-02-13T11:02:29.835Z,95.63
2023-02-13T11:03:29.823Z,101.25
2023-02-13T11:04:29.863Z,106.88
2023-02-13T11:05:29.816Z,106.88
2023-02-13T11:06:29.905Z,112.50
2023-02-13T11:07:29.783Z,118.13
2023-02-13T11:08:29.736Z,129.38
2023-02-13T11:09:29.729Z,129.38
2023-02-13T11:10:29.730Z,135.00
2023-02-13T11:11:29.691Z,140.63
2023-02-13T11:12:29.679Z,140.63
2023-02-13T11:13:29.663Z,140.63
2023-02-13T11:14:29.657Z,135.00
2023-02-13T11:15:29.811Z,129.38
2023-02-13T11:16:29.646Z,129.38
2023-02-13T11:17:29.598Z,123.75
2023-02-13T11:18:29.599Z,123.75
2023-02-13T11:19:29.596Z,123.75
2023-02-13T11:20:29.558Z,123.75
2023-02-13T11:21:29.534Z,129.38
2023-02-13T11:22:29.512Z,135.00
2023-02-13T11:23:29.507Z,140.63
2023-02-13T11:24:29.481Z,146.25
2023-02-13T11:25:29.521Z,151.88
2023-02-13T11:26:29.484Z,151.88
2023-02-13T11:27:29.442Z,151.88
2023-02-13T11:28:29.481Z,151.88
2023-02-13T11:29:29.418Z,146.25
2023-02-13T11:30:29.391Z,146.25
2023-02-13T11:31:29.445Z,140.63
2023-02-13T11:32:29.410Z,140.63
2023-02-13T11:33:29.349Z,135.00
2023-02-13T11:34:29.320Z,129.38
2023-02-13T11:35:29.309Z,123.75
2023-02-13T11:36:29.297Z,118.13
2023-02-13T11:37:29.305Z,118.13
2023-02-13T11:38:29.263Z,123.75
2023-02-13T11:39:29.247Z,123.75
2023-02-13T11:40:29.241Z,123.75
2023-02-13T11:41:29.220Z,123.75
2023-02-13T11:42:29.250Z,123.75
2023-02-13T11:43:29.199Z,123.75
2023-02-13T11:44:29.181Z,118.13
2023-02-13T11:45:29.156Z,118.13
2023-02-13T11:46:29.144Z,112.50
2023-02-13T11:47:29.124Z,106.88
2023-02-13T11:48:29.148Z,106.88
2023-02-13T11:49:29.094Z,101.25
2023-02-13T11:50:29.076Z,101.25
2023-02-13T11:51:29.059Z,101.25
2023-02-13T11:52:29.047Z,95.63
2023-02-13T11:53:29.057Z,90.00
2023-02-13T11:54:29.035Z,90.00
2023-02-13T11:55:29.001Z,84.38
2023-02-13T11:56:28.982Z,84.38
2023-02-13T11:57:29.009Z,84.38
2023-02-13T11:58:29.017Z,84.38
2023-02-13T11:59:28.957Z,84.38
2023-02-13T12:00:28.929Z,84.38
2023-02-13T12:01:28.912Z,84.38
2023-02-13T12:02:28.969Z,90.00
2023-02-13T12:03:29.038Z,95.63
2023-02-13T12:04:28.862Z,101.25
2023-02-13T12:05:28.850Z,101.25
2023-02-13T12:06:28.839Z,101.25
2023-02-13T12:07:28.823Z,101.25
2023-02-13T12:08:28.798Z,106.88
2023-02-13T12:09:28.803Z,106.88
2023-02-13T12:10:28.784Z,112.50
2023-02-13T12:11:28.768Z,118.13
2023-02-13T12:12:28.737Z,123.75
2023-02-13T12:13:28.730Z,123.75
2023-02-13T12:14:28.718Z,129.38
2023-02-13T12:15:28.685Z,129.38
2023-02-13T12:16:28.762Z,135.00
2023-02-13T12:17:32.134Z,135.00
2023-02-13T12:18:28.640Z,140.63
2023-02-13T12:19:28.642Z,146.25
2023-02-13T12:20:28.610Z,146.25
2023-02-13T12:21:28.598Z,140.63
2023-02-13T12:22:28.611Z,140.63
2023-02-13T12:23:28.571Z,135.00
2023-02-13T12:24:28.544Z,140.63
2023-02-13T12:25:28.571Z,140.63
2023-02-13T12:26:28.526Z,140.63
2023-02-13T12:27:28.510Z,140.63
2023-02-13T12:28:28.673Z,146.25
2023-02-13T12:29:28.533Z,146.25
2023-02-13T12:30:28.489Z,151.88
2023-02-13T12:31:28.521Z,157.50
2023-02-13T12:32:28.419Z,157.50
2023-02-13T12:33:28.451Z,157.50
2023-02-13T12:34:28.391Z,163.13
2023-02-13T12:35:28.375Z,168.75
2023-02-13T12:36:28.356Z,174.38
2023-02-13T12:37:28.342Z,168.75
2023-02-13T12:38:28.353Z,163.13
2023-02-13T12:39:28.313Z,157.50
2023-02-13T12:40:28.325Z,157.50
2023-02-13T12:41:28.306Z,151.88
2023-02-13T12:42:28.263Z,151.88
2023-02-13T12:43:28.303Z,151.88
2023-02-13T12:44:28.239Z,157.50
2023-02-13T12:45:28.237Z,168.75
2023-02-13T12:46:28.229Z,174.38
2023-02-13T12:47:28.220Z,174.38
2023-02-13T12:48:28.174Z,163.13
2023-02-13T12:49:28.158Z,157.50
2023-02-13T12:50:28.149Z,163.13
2023-02-13T12:51:28.126Z,180.00
2023-02-13T12:52:28.116Z,163.13
2023-02-13T12:53:29.635Z,151.88
2023-02-13T12:54:28.086Z,123.75
2023-02-13T12:55:28.098Z,112.50
2023-02-13T12:56:28.120Z,112.50
2023-02-13T12:57:28.042Z,101.25
2023-02-13T12:58:28.162Z,90.00
2023-02-13T12:59:28.591Z,95.63
2023-02-13T13:00:28.004Z,95.63
2023-02-13T13:01:27.994Z,95.63